sensor_id;sensor_type;location;lat;lon;timestamp;temperature;humidity
73570;SHT30;61850;54.980;73.298;2022-07-10T00:13:49;21.93;58.43
73570;SHT30;61850;54.980;73.298;2022-07-10T00:16:25;21.92;58.89
73570;SHT30;61850;54.980;73.298;2022-07-10T00:42:56;22.30;57.91
73570;SHT30;61850;54.980;73.298;2022-07-10T00:45:27;22.31;57.85
73570;SHT30;61850;54.980;73.298;2022-07-10T00:47:53;22.40;57.59
73570;SHT30;61850;54.980;73.298;2022-07-10T00:50:20;22.49;57.37
73570;SHT30;61850;54.980;73.298;2022-07-10T00:52:47;22.61;56.99
73570;SHT30;61850;54.980;73.298;2022-07-10T00:55:22;22.65;56.91
73570;SHT30;61850;54.980;73.298;2022-07-10T00:57:59;22.68;56.97
73570;SHT30;61850;54.980;73.298;2022-07-10T01:00:36;22.75;56.77
73570;SHT30;61850;54.980;73.298;2022-07-10T01:03:03;22.77;56.77
73570;SHT30;61850;54.980;73.298;2022-07-10T01:05:40;22.88;56.58
73570;SHT30;61850;54.980;73.298;2022-07-10T01:08:12;22.89;56.61
73570;SHT30;61850;54.980;73.298;2022-07-10T01:10:39;22.91;56.69
73570;SHT30;61850;54.980;73.298;2022-07-10T01:13:06;23.02;56.45
73570;SHT30;61850;54.980;73.298;2022-07-10T01:15:46;23.05;56.58
73570;SHT30;61850;54.980;73.298;2022-07-10T01:18:13;23.07;56.44
73570;SHT30;61850;54.980;73.298;2022-07-10T01:20:40;23.12;56.39
73570;SHT30;61850;54.980;73.298;2022-07-10T01:50:36;23.84;55.55
73570;SHT30;61850;54.980;73.298;2022-07-10T01:53:12;23.91;55.51
73570;SHT30;61850;54.980;73.298;2022-07-10T01:55:38;23.95;55.40
73570;SHT30;61850;54.980;73.298;2022-07-10T01:58:05;24.01;55.31
73570;SHT30;61850;54.980;73.298;2022-07-10T02:00:37;24.13;55.26
73570;SHT30;61850;54.980;73.298;2022-07-10T02:03:03;24.23;55.05
73570;SHT30;61850;54.980;73.298;2022-07-10T02:05:55;24.29;54.85
73570;SHT30;61850;54.980;73.298;2022-07-10T02:08:21;24.33;54.86
73570;SHT30;61850;54.980;73.298;2022-07-10T02:10:58;24.41;54.64
73570;SHT30;61850;54.980;73.298;2022-07-10T02:13:24;24.48;54.84
73570;SHT30;61850;54.980;73.298;2022-07-10T02:15:54;24.53;54.63
73570;SHT30;61850;54.980;73.298;2022-07-10T02:18:20;24.59;54.17
73570;SHT30;61850;54.980;73.298;2022-07-10T02:20:47;24.68;53.84
73570;SHT30;61850;54.980;73.298;2022-07-10T02:23:18;24.71;53.90
73570;SHT30;61850;54.980;73.298;2022-07-10T02:25:46;24.77;53.41
73570;SHT30;61850;54.980;73.298;2022-07-10T02:28:12;24.86;53.36
73570;SHT30;61850;54.980;73.298;2022-07-10T02:30:38;24.92;53.28
73570;SHT30;61850;54.980;73.298;2022-07-10T02:33:05;24.99;53.01
73570;SHT30;61850;54.980;73.298;2022-07-10T02:35:34;25.08;52.96
73570;SHT30;61850;54.980;73.298;2022-07-10T02:38:00;25.18;52.92
73570;SHT30;61850;54.980;73.298;2022-07-10T02:40:26;25.21;52.50
73570;SHT30;61850;54.980;73.298;2022-07-10T02:42:52;25.26;52.42
73570;SHT30;61850;54.980;73.298;2022-07-10T02:45:19;25.25;53.00
73570;SHT30;61850;54.980;73.298;2022-07-10T03:15:17;25.98;51.13
73570;SHT30;61850;54.980;73.298;2022-07-10T03:20:38;25.96;51.27
73570;SHT30;61850;54.980;73.298;2022-07-10T03:23:04;26.01;51.35
73570;SHT30;61850;54.980;73.298;2022-07-10T07:34:05;31.60;31.13
73570;SHT30;61850;54.980;73.298;2022-07-10T07:42:37;31.33;32.46
73570;SHT30;61850;54.980;73.298;2022-07-10T07:46:08;30.92;33.28
73570;SHT30;61850;54.980;73.298;2022-07-10T07:49:54;30.96;33.56
73570;SHT30;61850;54.980;73.298;2022-07-10T07:54:06;30.48;33.16
73570;SHT30;61850;54.980;73.298;2022-07-10T07:57:42;30.87;32.86
73570;SHT30;61850;54.980;73.298;2022-07-10T08:00:15;31.22;32.30
73570;SHT30;61850;54.980;73.298;2022-07-10T08:02:50;31.16;32.16
73570;SHT30;61850;54.980;73.298;2022-07-10T08:05:17;31.03;31.83
73570;SHT30;61850;54.980;73.298;2022-07-10T08:07:47;30.82;32.15
73570;SHT30;61850;54.980;73.298;2022-07-10T08:10:15;30.48;32.66
73570;SHT30;61850;54.980;73.298;2022-07-10T08:15:36;31.29;31.74
73570;SHT30;61850;54.980;73.298;2022-07-10T08:21:42;32.01;30.56
73570;SHT30;61850;54.980;73.298;2022-07-10T08:24:18;31.48;30.96
73570;SHT30;61850;54.980;73.298;2022-07-10T08:26:44;32.30;29.88
73570;SHT30;61850;54.980;73.298;2022-07-10T08:29:30;32.98;28.89
73570;SHT30;61850;54.980;73.298;2022-07-10T08:31:56;32.39;29.48
73570;SHT30;61850;54.980;73.298;2022-07-10T08:34:27;32.16;29.44
73570;SHT30;61850;54.980;73.298;2022-07-10T08:37:03;32.94;28.31
73570;SHT30;61850;54.980;73.298;2022-07-10T08:39:30;33.48;27.90
73570;SHT30;61850;54.980;73.298;2022-07-10T08:51:07;33.28;28.55
73570;SHT30;61850;54.980;73.298;2022-07-10T08:53:37;33.34;28.14
73570;SHT30;61850;54.980;73.298;2022-07-10T10:10:06;38.02;23.23
73570;SHT30;61850;54.980;73.298;2022-07-10T10:12:42;37.90;23.43
73570;SHT30;61850;54.980;73.298;2022-07-10T10:15:22;38.27;23.03
73570;SHT30;61850;54.980;73.298;2022-07-10T10:17:51;38.56;22.86
73570;SHT30;61850;54.980;73.298;2022-07-10T10:20:20;38.01;22.88
73570;SHT30;61850;54.980;73.298;2022-07-10T10:23:13;38.44;22.48
73570;SHT30;61850;54.980;73.298;2022-07-10T10:25:39;38.13;23.10
73570;SHT30;61850;54.980;73.298;2022-07-10T10:28:09;38.15;23.33
73570;SHT30;61850;54.980;73.298;2022-07-10T10:30:40;37.53;24.23
73570;SHT30;61850;54.980;73.298;2022-07-10T10:36:09;38.47;22.55
73570;SHT30;61850;54.980;73.298;2022-07-10T10:41:23;38.67;21.53
73570;SHT30;61850;54.980;73.298;2022-07-10T10:49:26;38.39;22.54
73570;SHT30;61850;54.980;73.298;2022-07-10T10:58:18;38.99;22.56
73570;SHT30;61850;54.980;73.298;2022-07-10T11:03:40;37.72;23.44
73570;SHT30;61850;54.980;73.298;2022-07-10T11:18:53;37.79;23.21
73570;SHT30;61850;54.980;73.298;2022-07-10T11:36:33;38.82;21.62
73570;SHT30;61850;54.980;73.298;2022-07-10T11:39:01;38.81;21.80
73570;SHT30;61850;54.980;73.298;2022-07-10T11:47:40;38.61;22.41
73570;SHT30;61850;54.980;73.298;2022-07-10T11:50:06;38.95;22.00
73570;SHT30;61850;54.980;73.298;2022-07-10T11:52:36;38.59;22.26
73570;SHT30;61850;54.980;73.298;2022-07-10T11:55:19;38.63;22.49
73570;SHT30;61850;54.980;73.298;2022-07-10T12:07:29;38.85;21.96
73570;SHT30;61850;54.980;73.298;2022-07-10T12:31:22;39.65;21.97
73570;SHT30;61850;54.980;73.298;2022-07-10T12:33:53;39.60;21.78
73570;SHT30;61850;54.980;73.298;2022-07-10T12:36:21;39.73;21.77
73570;SHT30;61850;54.980;73.298;2022-07-10T12:38:55;39.38;21.94
73570;SHT30;61850;54.980;73.298;2022-07-10T12:56:37;38.95;21.99
73570;SHT30;61850;54.980;73.298;2022-07-10T12:59:12;38.77;22.02
73570;SHT30;61850;54.980;73.298;2022-07-10T13:04:55;38.17;22.86
73570;SHT30;61850;54.980;73.298;2022-07-10T13:07:32;38.30;22.56
73570;SHT30;61850;54.980;73.298;2022-07-10T13:10:06;38.70;22.30
73570;SHT30;61850;54.980;73.298;2022-07-10T13:12:34;38.56;22.67
73570;SHT30;61850;54.980;73.298;2022-07-10T13:15:03;38.56;22.88
73570;SHT30;61850;54.980;73.298;2022-07-10T13:17:29;38.67;22.74
73570;SHT30;61850;54.980;73.298;2022-07-10T13:19:55;38.74;22.84
73570;SHT30;61850;54.980;73.298;2022-07-10T13:22:22;38.66;22.74
73570;SHT30;61850;54.980;73.298;2022-07-10T13:24:58;38.51;22.73
73570;SHT30;61850;54.980;73.298;2022-07-10T13:27:31;38.40;22.91
73570;SHT30;61850;54.980;73.298;2022-07-10T13:30:08;38.41;22.95
73570;SHT30;61850;54.980;73.298;2022-07-10T13:32:34;38.49;22.97
73570;SHT30;61850;54.980;73.298;2022-07-10T13:35:00;38.30;23.23
73570;SHT30;61850;54.980;73.298;2022-07-10T13:38:06;38.11;23.30
73570;SHT30;61850;54.980;73.298;2022-07-10T13:40:34;37.82;24.01
73570;SHT30;61850;54.980;73.298;2022-07-10T13:43:02;37.78;24.17
73570;SHT30;61850;54.980;73.298;2022-07-10T13:45:39;37.82;24.26
73570;SHT30;61850;54.980;73.298;2022-07-10T13:48:15;37.72;24.40
73570;SHT30;61850;54.980;73.298;2022-07-10T13:50:52;37.55;24.72
73570;SHT30;61850;54.980;73.298;2022-07-10T13:53:19;36.77;25.54
73570;SHT30;61850;54.980;73.298;2022-07-10T13:55:50;36.00;26.43
73570;SHT30;61850;54.980;73.298;2022-07-10T13:58:20;35.37;27.34
73570;SHT30;61850;54.980;73.298;2022-07-10T14:00:47;34.59;28.30
73570;SHT30;61850;54.980;73.298;2022-07-10T14:03:19;34.10;28.99
73570;SHT30;61850;54.980;73.298;2022-07-10T14:05:51;33.68;29.64
73570;SHT30;61850;54.980;73.298;2022-07-10T14:08:17;33.22;30.40
73570;SHT30;61850;54.980;73.298;2022-07-10T14:10:43;32.84;31.14
73570;SHT30;61850;54.980;73.298;2022-07-10T14:13:13;32.63;31.50
73570;SHT30;61850;54.980;73.298;2022-07-10T14:15:39;32.23;32.28
73570;SHT30;61850;54.980;73.298;2022-07-10T14:18:15;32.06;32.61
73570;SHT30;61850;54.980;73.298;2022-07-10T14:21:01;31.85;33.08
73570;SHT30;61850;54.980;73.298;2022-07-10T14:23:31;31.67;33.42
73570;SHT30;61850;54.980;73.298;2022-07-10T14:26:00;31.47;33.86
73570;SHT30;61850;54.980;73.298;2022-07-10T14:28:31;31.33;34.40
73570;SHT30;61850;54.980;73.298;2022-07-10T14:30:59;31.16;34.73
73570;SHT30;61850;54.980;73.298;2022-07-10T14:33:38;31.02;34.98
73570;SHT30;61850;54.980;73.298;2022-07-10T14:36:14;30.89;35.52
73570;SHT30;61850;54.980;73.298;2022-07-10T14:42:03;30.51;36.46
73570;SHT30;61850;54.980;73.298;2022-07-10T14:44:44;30.47;36.52
73570;SHT30;61850;54.980;73.298;2022-07-10T14:47:25;30.34;36.76
73570;SHT30;61850;54.980;73.298;2022-07-10T14:53:17;30.06;37.46
73570;SHT30;61850;54.980;73.298;2022-07-10T15:21:15;29.65;39.17
73570;SHT30;61850;54.980;73.298;2022-07-10T15:45:32;28.83;41.44
73570;SHT30;61850;54.980;73.298;2022-07-10T15:54:02;28.50;41.98
73570;SHT30;61850;54.980;73.298;2022-07-10T15:59:40;28.31;42.49
73570;SHT30;61850;54.980;73.298;2022-07-10T16:02:07;28.26;42.56
73570;SHT30;61850;54.980;73.298;2022-07-10T16:04:33;28.20;42.61
73570;SHT30;61850;54.980;73.298;2022-07-10T16:07:09;28.09;42.87
73570;SHT30;61850;54.980;73.298;2022-07-10T16:09:46;28.05;42.92
73570;SHT30;61850;54.980;73.298;2022-07-10T16:12:12;27.99;42.78
73570;SHT30;61850;54.980;73.298;2022-07-10T16:14:38;27.94;43.04
73570;SHT30;61850;54.980;73.298;2022-07-10T16:17:04;27.82;43.15
73570;SHT30;61850;54.980;73.298;2022-07-10T16:19:30;27.77;43.29
73570;SHT30;61850;54.980;73.298;2022-07-10T16:22:03;27.72;43.51
73570;SHT30;61850;54.980;73.298;2022-07-10T16:33:39;27.40;44.13
73570;SHT30;61850;54.980;73.298;2022-07-10T16:36:06;27.34;44.44
73570;SHT30;61850;54.980;73.298;2022-07-10T16:38:33;27.30;44.84
73570;SHT30;61850;54.980;73.298;2022-07-10T16:41:00;27.27;44.96
73570;SHT30;61850;54.980;73.298;2022-07-10T16:43:26;27.26;45.05
73570;SHT30;61850;54.980;73.298;2022-07-10T16:45:56;27.19;45.11
73570;SHT30;61850;54.980;73.298;2022-07-10T16:51:25;27.09;45.39
73570;SHT30;61850;54.980;73.298;2022-07-10T16:53:51;27.04;45.48
73570;SHT30;61850;54.980;73.298;2022-07-10T16:56:29;27.00;45.49
73570;SHT30;61850;54.980;73.298;2022-07-10T16:58:56;26.98;45.49
73570;SHT30;61850;54.980;73.298;2022-07-10T17:01:22;26.98;45.56
73570;SHT30;61850;54.980;73.298;2022-07-10T17:03:48;26.92;45.73
73570;SHT30;61850;54.980;73.298;2022-07-10T17:06:14;26.88;45.93
73570;SHT30;61850;54.980;73.298;2022-07-10T17:08:40;26.80;46.04
73570;SHT30;61850;54.980;73.298;2022-07-10T17:20:15;26.65;46.13
73570;SHT30;61850;54.980;73.298;2022-07-10T17:22:41;26.65;46.18
73570;SHT30;61850;54.980;73.298;2022-07-10T17:25:14;26.63;46.22
73570;SHT30;61850;54.980;73.298;2022-07-10T17:27:40;26.58;46.35
73570;SHT30;61850;54.980;73.298;2022-07-10T17:30:07;26.59;46.30
73570;SHT30;61850;54.980;73.298;2022-07-10T17:32:44;26.56;46.24
73570;SHT30;61850;54.980;73.298;2022-07-10T17:35:14;26.53;46.33
73570;SHT30;61850;54.980;73.298;2022-07-10T17:37:40;26.51;46.46
73570;SHT30;61850;54.980;73.298;2022-07-10T17:40:19;26.47;46.51
73570;SHT30;61850;54.980;73.298;2022-07-10T17:42:56;26.44;46.62
73570;SHT30;61850;54.980;73.298;2022-07-10T17:45:22;26.40;46.73
73570;SHT30;61850;54.980;73.298;2022-07-10T17:47:49;26.37;46.88
73570;SHT30;61850;54.980;73.298;2022-07-10T17:50:15;26.31;46.92
73570;SHT30;61850;54.980;73.298;2022-07-10T17:52:42;26.31;47.00
73570;SHT30;61850;54.980;73.298;2022-07-10T17:55:09;26.31;47.10
73570;SHT30;61850;54.980;73.298;2022-07-10T18:00:44;26.23;47.30
73570;SHT30;61850;54.980;73.298;2022-07-10T18:03:10;26.18;47.55
73570;SHT30;61850;54.980;73.298;2022-07-10T18:05:36;26.18;47.56
73570;SHT30;61850;54.980;73.298;2022-07-10T18:08:04;26.17;47.56
73570;SHT30;61850;54.980;73.298;2022-07-10T18:13:35;26.13;47.76
73570;SHT30;61850;54.980;73.298;2022-07-10T18:19:04;26.07;47.77
73570;SHT30;61850;54.980;73.298;2022-07-10T18:21:40;26.08;47.75
73570;SHT30;61850;54.980;73.298;2022-07-10T18:24:07;26.08;47.82
73570;SHT30;61850;54.980;73.298;2022-07-10T18:26:33;26.08;47.85
73570;SHT30;61850;54.980;73.298;2022-07-10T18:28:59;26.08;47.80
73570;SHT30;61850;54.980;73.298;2022-07-10T18:31:26;26.07;47.89
73570;SHT30;61850;54.980;73.298;2022-07-10T18:33:53;26.08;47.88
73570;SHT30;61850;54.980;73.298;2022-07-10T18:36:38;26.07;48.03
73570;SHT30;61850;54.980;73.298;2022-07-10T18:45:05;26.01;48.35
73570;SHT30;61850;54.980;73.298;2022-07-10T18:53:41;25.92;48.94
73570;SHT30;61850;54.980;73.298;2022-07-10T18:56:08;25.89;49.24
73570;SHT30;61850;54.980;73.298;2022-07-10T18:58:34;25.84;49.41
73570;SHT30;61850;54.980;73.298;2022-07-10T19:01:01;25.82;49.64
73570;SHT30;61850;54.980;73.298;2022-07-10T19:03:27;25.77;49.74
73570;SHT30;61850;54.980;73.298;2022-07-10T19:05:58;25.73;49.83
73570;SHT30;61850;54.980;73.298;2022-07-10T19:08:24;25.69;49.92
73570;SHT30;61850;54.980;73.298;2022-07-10T19:10:55;25.69;50.02
73570;SHT30;61850;54.980;73.298;2022-07-10T19:13:27;25.69;50.05
73570;SHT30;61850;54.980;73.298;2022-07-10T19:15:53;25.67;50.19
73570;SHT30;61850;54.980;73.298;2022-07-10T19:18:19;25.66;50.23
73570;SHT30;61850;54.980;73.298;2022-07-10T19:20:51;25.58;50.69
73570;SHT30;61850;54.980;73.298;2022-07-10T19:23:18;25.47;50.93
73570;SHT30;61850;54.980;73.298;2022-07-10T19:25:48;25.49;51.11
73570;SHT30;61850;54.980;73.298;2022-07-10T19:28:14;25.47;51.06
73570;SHT30;61850;54.980;73.298;2022-07-10T19:30:40;25.46;51.34
73570;SHT30;61850;54.980;73.298;2022-07-10T19:33:08;25.41;51.55
73570;SHT30;61850;54.980;73.298;2022-07-10T19:35:35;25.38;51.65
73570;SHT30;61850;54.980;73.298;2022-07-10T19:38:01;25.38;51.78
73570;SHT30;61850;54.980;73.298;2022-07-10T19:40:27;25.35;51.91
73570;SHT30;61850;54.980;73.298;2022-07-10T19:42:56;25.34;52.01
73570;SHT30;61850;54.980;73.298;2022-07-10T19:45:23;25.31;52.33
73570;SHT30;61850;54.980;73.298;2022-07-10T19:47:58;25.29;52.39
73570;SHT30;61850;54.980;73.298;2022-07-10T19:50:25;25.32;52.51
73570;SHT30;61850;54.980;73.298;2022-07-10T19:52:51;25.26;52.59
73570;SHT30;61850;54.980;73.298;2022-07-10T19:55:18;25.25;52.70
73570;SHT30;61850;54.980;73.298;2022-07-10T19:57:44;25.25;52.82
73570;SHT30;61850;54.980;73.298;2022-07-10T20:00:21;25.24;52.91
73570;SHT30;61850;54.980;73.298;2022-07-10T20:02:48;25.18;53.09
73570;SHT30;61850;54.980;73.298;2022-07-10T20:05:19;25.15;53.24
73570;SHT30;61850;54.980;73.298;2022-07-10T20:07:47;25.15;53.39
73570;SHT30;61850;54.980;73.298;2022-07-10T20:10:14;25.14;53.35
73570;SHT30;61850;54.980;73.298;2022-07-10T20:12:40;25.11;53.49
73570;SHT30;61850;54.980;73.298;2022-07-10T20:15:11;25.07;53.54
73570;SHT30;61850;54.980;73.298;2022-07-10T20:17:48;25.05;53.67
73570;SHT30;61850;54.980;73.298;2022-07-10T20:20:24;25.03;53.72
73570;SHT30;61850;54.980;73.298;2022-07-10T20:22:59;24.99;53.70
73570;SHT30;61850;54.980;73.298;2022-07-10T20:25:26;24.98;53.84
73570;SHT30;61850;54.980;73.298;2022-07-10T20:27:52;24.99;53.87
73570;SHT30;61850;54.980;73.298;2022-07-10T20:30:19;24.98;53.70
73570;SHT30;61850;54.980;73.298;2022-07-10T20:32:49;24.92;53.84
73570;SHT30;61850;54.980;73.298;2022-07-10T20:35:25;24.98;53.77
73570;SHT30;61850;54.980;73.298;2022-07-10T20:37:56;24.97;53.70
73570;SHT30;61850;54.980;73.298;2022-07-10T20:40:22;24.99;53.71
73570;SHT30;61850;54.980;73.298;2022-07-10T20:42:49;24.97;53.90
73570;SHT30;61850;54.980;73.298;2022-07-10T20:45:27;24.94;53.86
73570;SHT30;61850;54.980;73.298;2022-07-10T20:47:54;24.91;53.94
73570;SHT30;61850;54.980;73.298;2022-07-10T20:50:21;24.91;53.98
73570;SHT30;61850;54.980;73.298;2022-07-10T20:52:52;24.87;54.12
73570;SHT30;61850;54.980;73.298;2022-07-10T20:55:24;24.88;54.16
73570;SHT30;61850;54.980;73.298;2022-07-10T20:57:50;24.86;54.17
73570;SHT30;61850;54.980;73.298;2022-07-10T21:00:26;24.84;54.21
73570;SHT30;61850;54.980;73.298;2022-07-10T21:02:52;24.83;54.30
73570;SHT30;61850;54.980;73.298;2022-07-10T21:05:23;24.81;54.49
73570;SHT30;61850;54.980;73.298;2022-07-10T21:08:04;24.78;54.47
73570;SHT30;61850;54.980;73.298;2022-07-10T21:10:30;24.73;54.55
73570;SHT30;61850;54.980;73.298;2022-07-10T21:13:15;24.73;54.67
73570;SHT30;61850;54.980;73.298;2022-07-10T21:15:48;24.70;54.70
73570;SHT30;61850;54.980;73.298;2022-07-10T21:18:23;24.66;54.83
73570;SHT30;61850;54.980;73.298;2022-07-10T21:20:56;24.61;55.06
73570;SHT30;61850;54.980;73.298;2022-07-10T21:23:22;24.61;55.13
73570;SHT30;61850;54.980;73.298;2022-07-10T21:25:55;24.57;55.26
73570;SHT30;61850;54.980;73.298;2022-07-10T21:28:21;24.56;55.33
73570;SHT30;61850;54.980;73.298;2022-07-10T21:30:53;24.55;55.34
73570;SHT30;61850;54.980;73.298;2022-07-10T21:33:20;24.52;55.59
73570;SHT30;61850;54.980;73.298;2022-07-10T21:35:51;24.37;56.51
73570;SHT30;61850;54.980;73.298;2022-07-10T21:38:17;24.16;57.55
73570;SHT30;61850;54.980;73.298;2022-07-10T21:40:43;24.05;57.96
73570;SHT30;61850;54.980;73.298;2022-07-10T21:43:16;23.94;58.69
73570;SHT30;61850;54.980;73.298;2022-07-10T21:45:43;23.85;58.86
73570;SHT30;61850;54.980;73.298;2022-07-10T21:48:12;23.74;59.19
73570;SHT30;61850;54.980;73.298;2022-07-10T21:50:40;23.70;59.66
73570;SHT30;61850;54.980;73.298;2022-07-10T21:53:07;23.65;59.94
73570;SHT30;61850;54.980;73.298;2022-07-10T21:55:40;23.60;60.27
73570;SHT30;61850;54.980;73.298;2022-07-10T21:58:06;23.60;60.28
73570;SHT30;61850;54.980;73.298;2022-07-10T22:00:40;23.54;60.43
73570;SHT30;61850;54.980;73.298;2022-07-10T22:03:11;23.49;60.85
73570;SHT30;61850;54.980;73.298;2022-07-10T22:05:37;23.44;61.10
73570;SHT30;61850;54.980;73.298;2022-07-10T22:08:05;23.39;61.53
73570;SHT30;61850;54.980;73.298;2022-07-10T22:10:32;23.30;62.19
73570;SHT30;61850;54.980;73.298;2022-07-10T22:12:58;23.20;62.16
73570;SHT30;61850;54.980;73.298;2022-07-10T22:15:29;23.24;62.04
73570;SHT30;61850;54.980;73.298;2022-07-10T22:17:56;23.23;62.12
73570;SHT30;61850;54.980;73.298;2022-07-10T22:20:23;23.20;62.27
73570;SHT30;61850;54.980;73.298;2022-07-10T22:22:50;23.23;61.57
73570;SHT30;61850;54.980;73.298;2022-07-10T22:25:19;23.30;60.90
73570;SHT30;61850;54.980;73.298;2022-07-10T22:27:46;23.37;60.69
73570;SHT30;61850;54.980;73.298;2022-07-10T22:30:15;23.37;60.89
73570;SHT30;61850;54.980;73.298;2022-07-10T22:33:08;23.36;61.21
73570;SHT30;61850;54.980;73.298;2022-07-10T22:35:34;23.28;61.22
73570;SHT30;61850;54.980;73.298;2022-07-10T22:38:04;23.27;61.15
73570;SHT30;61850;54.980;73.298;2022-07-10T22:40:36;23.31;60.99
73570;SHT30;61850;54.980;73.298;2022-07-10T22:43:02;23.37;60.76
73570;SHT30;61850;54.980;73.298;2022-07-10T22:45:28;23.43;60.63
73570;SHT30;61850;54.980;73.298;2022-07-10T22:47:59;23.44;60.66
73570;SHT30;61850;54.980;73.298;2022-07-10T22:50:25;23.43;60.63
73570;SHT30;61850;54.980;73.298;2022-07-10T22:52:51;23.43;60.66
73570;SHT30;61850;54.980;73.298;2022-07-10T22:55:17;23.43;60.69
73570;SHT30;61850;54.980;73.298;2022-07-10T22:57:43;23.37;61.06
73570;SHT30;61850;54.980;73.298;2022-07-10T23:00:09;23.31;61.43
73570;SHT30;61850;54.980;73.298;2022-07-10T23:02:36;23.27;61.55
73570;SHT30;61850;54.980;73.298;2022-07-10T23:05:12;23.20;62.06
73570;SHT30;61850;54.980;73.298;2022-07-10T23:07:38;23.13;62.33
73570;SHT30;61850;54.980;73.298;2022-07-10T23:10:05;23.06;62.63
73570;SHT30;61850;54.980;73.298;2022-07-10T23:15:22;23.10;62.77
73570;SHT30;61850;54.980;73.298;2022-07-10T23:17:56;23.12;62.62
73570;SHT30;61850;54.980;73.298;2022-07-10T23:20:23;23.14;62.63
73570;SHT30;61850;54.980;73.298;2022-07-10T23:22:49;23.12;62.83
73570;SHT30;61850;54.980;73.298;2022-07-10T23:25:17;23.10;63.01
73570;SHT30;61850;54.980;73.298;2022-07-10T23:27:43;23.12;63.04
73570;SHT30;61850;54.980;73.298;2022-07-10T23:30:09;23.17;63.19
73570;SHT30;61850;54.980;73.298;2022-07-10T23:41:46;23.16;63.64
73570;SHT30;61850;54.980;73.298;2022-07-10T23:44:18;23.17;63.71
73570;SHT30;61850;54.980;73.298;2022-07-10T23:46:45;23.17;63.79
73570;SHT30;61850;54.980;73.298;2022-07-10T23:49:21;23.13;64.12
73570;SHT30;61850;54.980;73.298;2022-07-10T23:52:06;23.14;64.09
73570;SHT30;61850;54.980;73.298;2022-07-10T23:54:32;23.19;64.11
